sensor_id;sensor_type;location;lat;lon;timestamp;pressure;altitude;pressure_sealevel;temperature;humidity
2711;BME280;20721;47.402;8.550;2023-02-20T00:01:55;97294;;;11.55;49.40
2711;BME280;20721;47.402;8.550;2023-02-20T00:03:55;97294;;;11.56;49.54
2711;BME280;20721;47.402;8.550;2023-02-20T00:04:55;97293;;;11.55;49.49
2711;BME280;20721;47.402;8.550;2023-02-20T00:05:55;97290;;;11.54;49.49
2711;BME280;20721;47.402;8.550;2023-02-20T00:06:55;97291;;;11.52;49.52
2711;BME280;20721;47.402;8.550;2023-02-20T00:08:55;97291;;;11.51;49.65
2711;BME280;20721;47.402;8.550;2023-02-20T00:09:55;97289;;;11.49;49.60
2711;BME280;20721;47.402;8.550;2023-02-20T00:10:55;97288;;;11.48;49.48
2711;BME280;20721;47.402;8.550;2023-02-20T00:11:55;97293;;;11.49;49.54
2711;BME280;20721;47.402;8.550;2023-02-20T00:12:55;97290;;;11.48;49.49
2711;BME280;20721;47.402;8.550;2023-02-20T00:13:55;97292;;;11.47;49.50
2711;BME280;20721;47.402;8.550;2023-02-20T00:15:55;97296;;;11.45;49.46
2711;BME280;20721;47.402;8.550;2023-02-20T00:16:56;97298;;;11.43;49.48
2711;BME280;20721;47.402;8.550;2023-02-20T00:17:55;97302;;;11.44;49.54
2711;BME280;20721;47.402;8.550;2023-02-20T00:18:55;97308;;;11.45;49.46
2711;BME280;20721;47.402;8.550;2023-02-20T00:22:55;97307;;;11.43;49.46
2711;BME280;20721;47.402;8.550;2023-02-20T00:23:55;97308;;;11.41;49.61
2711;BME280;20721;47.402;8.550;2023-02-20T00:24:55;97308;;;11.38;49.62
2711;BME280;20721;47.402;8.550;2023-02-20T00:25:55;97306;;;11.33;49.58
2711;BME280;20721;47.402;8.550;2023-02-20T00:26:55;97301;;;11.29;49.67
2711;BME280;20721;47.402;8.550;2023-02-20T00:27:55;97306;;;11.28;49.72
2711;BME280;20721;47.402;8.550;2023-02-20T00:28:55;97305;;;11.27;49.75
2711;BME280;20721;47.402;8.550;2023-02-20T00:29:55;97307;;;11.26;49.97
2711;BME280;20721;47.402;8.550;2023-02-20T00:30:55;97302;;;11.21;50.07
2711;BME280;20721;47.402;8.550;2023-02-20T00:32:55;97302;;;11.19;50.21
2711;BME280;20721;47.402;8.550;2023-02-20T00:34:55;97303;;;11.15;50.35
2711;BME280;20721;47.402;8.550;2023-02-20T00:35:55;97304;;;11.11;50.46
2711;BME280;20721;47.402;8.550;2023-02-20T00:36:55;97305;;;11.08;50.53
2711;BME280;20721;47.402;8.550;2023-02-20T00:37:55;97305;;;11.09;50.73
2711;BME280;20721;47.402;8.550;2023-02-20T00:38:55;97302;;;11.07;50.74
2711;BME280;20721;47.402;8.550;2023-02-20T00:39:55;97305;;;11.04;50.57
2711;BME280;20721;47.402;8.550;2023-02-20T00:40:55;97306;;;10.95;50.69
2711;BME280;20721;47.402;8.550;2023-02-20T00:41:56;97308;;;10.90;50.93
2711;BME280;20721;47.402;8.550;2023-02-20T00:42:55;97310;;;10.87;51.13
2711;BME280;20721;47.402;8.550;2023-02-20T00:43:55;97308;;;10.83;51.14
2711;BME280;20721;47.402;8.550;2023-02-20T00:44:55;97307;;;10.80;51.30
2711;BME280;20721;47.402;8.550;2023-02-20T00:46:55;97308;;;10.78;51.48
2711;BME280;20721;47.402;8.550;2023-02-20T00:47:55;97306;;;10.82;51.46
2711;BME280;20721;47.402;8.550;2023-02-20T00:48:55;97307;;;10.86;51.53
2711;BME280;20721;47.402;8.550;2023-02-20T00:49:55;97307;;;10.90;51.61
2711;BME280;20721;47.402;8.550;2023-02-20T00:50:55;97312;;;10.95;51.67
2711;BME280;20721;47.402;8.550;2023-02-20T00:51:55;97309;;;10.99;51.73
2711;BME280;20721;47.402;8.550;2023-02-20T00:52:55;97311;;;11.03;51.58
2711;BME280;20721;47.402;8.550;2023-02-20T00:53:55;97311;;;11.08;51.59
2711;BME280;20721;47.402;8.550;2023-02-20T00:54:55;97313;;;11.13;51.56
2711;BME280;20721;47.402;8.550;2023-02-20T00:55:55;97309;;;11.18;51.53
2711;BME280;20721;47.402;8.550;2023-02-20T00:56:55;97314;;;11.19;51.29
2711;BME280;20721;47.402;8.550;2023-02-20T00:57:55;97309;;;11.17;51.28
2711;BME280;20721;47.402;8.550;2023-02-20T00:58:55;97314;;;11.16;51.36
2711;BME280;20721;47.402;8.550;2023-02-20T01:00:55;97312;;;11.18;51.37
2711;BME280;20721;47.402;8.550;2023-02-20T01:01:55;97313;;;11.19;51.25
2711;BME280;20721;47.402;8.550;2023-02-20T01:02:55;97315;;;11.20;51.26
2711;BME280;20721;47.402;8.550;2023-02-20T01:04:55;97318;;;11.23;51.47
2711;BME280;20721;47.402;8.550;2023-02-20T01:05:55;97319;;;11.24;51.38
2711;BME280;20721;47.402;8.550;2023-02-20T01:06:55;97320;;;11.25;51.43
2711;BME280;20721;47.402;8.550;2023-02-20T01:08:55;97314;;;11.22;51.44
2711;BME280;20721;47.402;8.550;2023-02-20T01:09:55;97312;;;11.17;51.49
2711;BME280;20721;47.402;8.550;2023-02-20T01:10:55;97314;;;11.09;51.65
2711;BME280;20721;47.402;8.550;2023-02-20T01:11:55;97312;;;11.08;51.75
2711;BME280;20721;47.402;8.550;2023-02-20T01:12:55;97314;;;11.03;51.91
2711;BME280;20721;47.402;8.550;2023-02-20T01:14:55;97312;;;11.05;52.01
2711;BME280;20721;47.402;8.550;2023-02-20T01:15:55;97315;;;11.07;52.01
2711;BME280;20721;47.402;8.550;2023-02-20T01:16:55;97317;;;11.09;52.06
2711;BME280;20721;47.402;8.550;2023-02-20T01:17:55;97319;;;11.13;52.04
2711;BME280;20721;47.402;8.550;2023-02-20T01:18:55;97317;;;11.17;51.98
2711;BME280;20721;47.402;8.550;2023-02-20T01:19:55;97324;;;11.20;52.02
2711;BME280;20721;47.402;8.550;2023-02-20T01:20:55;97324;;;11.16;52.01
2711;BME280;20721;47.402;8.550;2023-02-20T01:21:55;97326;;;11.13;52.11
2711;BME280;20721;47.402;8.550;2023-02-20T01:22:55;97323;;;11.09;52.13
2711;BME280;20721;47.402;8.550;2023-02-20T01:23:55;97324;;;11.08;52.21
2711;BME280;20721;47.402;8.550;2023-02-20T01:25:55;97319;;;11.09;52.28
2711;BME280;20721;47.402;8.550;2023-02-20T01:26:55;97318;;;11.11;52.26
2711;BME280;20721;47.402;8.550;2023-02-20T01:28:55;97316;;;11.13;52.29
2711;BME280;20721;47.402;8.550;2023-02-20T01:29:55;97320;;;11.14;52.04
2711;BME280;20721;47.402;8.550;2023-02-20T01:30:55;97319;;;11.15;52.09
2711;BME280;20721;47.402;8.550;2023-02-20T01:31:55;97315;;;11.16;52.21
2711;BME280;20721;47.402;8.550;2023-02-20T01:32:55;97317;;;11.17;52.27
2711;BME280;20721;47.402;8.550;2023-02-20T01:33:55;97319;;;11.03;52.45
2711;BME280;20721;47.402;8.550;2023-02-20T01:34:55;97317;;;11.04;52.43
2711;BME280;20721;47.402;8.550;2023-02-20T01:35:55;97315;;;11.01;52.37
2711;BME280;20721;47.402;8.550;2023-02-20T01:36:55;97315;;;10.92;52.17
2711;BME280;20721;47.402;8.550;2023-02-20T01:37:55;97316;;;10.77;52.41
2711;BME280;20721;47.402;8.550;2023-02-20T01:38:55;97314;;;10.67;52.63
2711;BME280;20721;47.402;8.550;2023-02-20T01:39:55;97312;;;10.70;52.80
2711;BME280;20721;47.402;8.550;2023-02-20T01:40:55;97310;;;10.66;52.74
2711;BME280;20721;47.402;8.550;2023-02-20T01:41:57;97314;;;10.67;52.79
2711;BME280;20721;47.402;8.550;2023-02-20T01:42:55;97311;;;10.71;52.85
2711;BME280;20721;47.402;8.550;2023-02-20T01:43:55;97312;;;10.74;52.42
2711;BME280;20721;47.402;8.550;2023-02-20T01:45:11;97310;;;10.66;52.27
2711;BME280;20721;47.402;8.550;2023-02-20T01:46:22;97312;;;10.70;52.28
2711;BME280;20721;47.402;8.550;2023-02-20T01:46:56;97310;;;10.73;52.29
2711;BME280;20721;47.402;8.550;2023-02-20T01:47:56;97310;;;10.77;52.33
2711;BME280;20721;47.402;8.550;2023-02-20T01:49:55;97305;;;10.82;52.12
2711;BME280;20721;47.402;8.550;2023-02-20T01:51:59;97306;;;10.83;51.77
2711;BME280;20721;47.402;8.550;2023-02-20T01:52:56;97306;;;10.85;51.72
2711;BME280;20721;47.402;8.550;2023-02-20T01:53:55;97306;;;10.90;51.72
2711;BME280;20721;47.402;8.550;2023-02-20T01:54:56;97312;;;10.93;51.62
2711;BME280;20721;47.402;8.550;2023-02-20T01:55:57;97308;;;10.91;51.54
2711;BME280;20721;47.402;8.550;2023-02-20T01:56:56;97310;;;10.90;51.51
2711;BME280;20721;47.402;8.550;2023-02-20T01:57:58;97310;;;10.89;51.45
2711;BME280;20721;47.402;8.550;2023-02-20T01:58:55;97310;;;10.88;51.39
2711;BME280;20721;47.402;8.550;2023-02-20T01:59:56;97310;;;10.81;51.36
2711;BME280;20721;47.402;8.550;2023-02-20T02:00:55;97310;;;10.83;51.50
2711;BME280;20721;47.402;8.550;2023-02-20T02:03:56;97316;;;10.81;51.52
2711;BME280;20721;47.402;8.550;2023-02-20T02:05:57;97317;;;10.84;51.63
2711;BME280;20721;47.402;8.550;2023-02-20T02:07:55;97312;;;10.87;51.67
2711;BME280;20721;47.402;8.550;2023-02-20T02:08:55;97311;;;10.90;51.58
2711;BME280;20721;47.402;8.550;2023-02-20T02:09:59;97314;;;10.93;51.56
2711;BME280;20721;47.402;8.550;2023-02-20T02:11:55;97313;;;10.90;51.51
2711;BME280;20721;47.402;8.550;2023-02-20T02:12:55;97317;;;10.88;51.63
2711;BME280;20721;47.402;8.550;2023-02-20T02:13:55;97314;;;10.89;51.72
2711;BME280;20721;47.402;8.550;2023-02-20T02:14:55;97315;;;10.93;51.76
2711;BME280;20721;47.402;8.550;2023-02-20T02:20:09;97312;;;11.08;51.41
2711;BME280;20721;47.402;8.550;2023-02-20T02:22:16;97308;;;11.11;51.54
2711;BME280;20721;47.402;8.550;2023-02-20T02:35:02;97297;;;11.06;51.28
2711;BME280;20721;47.402;8.550;2023-02-20T02:39:58;97296;;;10.83;51.38
2711;BME280;20721;47.402;8.550;2023-02-20T02:40:59;97298;;;10.82;51.50
2711;BME280;20721;47.402;8.550;2023-02-20T02:42:05;97302;;;10.81;51.52
2711;BME280;20721;47.402;8.550;2023-02-20T02:43:58;97300;;;10.86;51.31
2711;BME280;20721;47.402;8.550;2023-02-20T02:44:59;97295;;;10.88;51.34
2711;BME280;20721;47.402;8.550;2023-02-20T02:45:56;97294;;;10.92;51.36
2711;BME280;20721;47.402;8.550;2023-02-20T02:47:00;97293;;;10.96;51.30
2711;BME280;20721;47.402;8.550;2023-02-20T02:47:58;97287;;;10.97;50.91
2711;BME280;20721;47.402;8.550;2023-02-20T02:51:55;97283;;;10.94;50.81
2711;BME280;20721;47.402;8.550;2023-02-20T02:54:12;97285;;;10.97;50.82
2711;BME280;20721;47.402;8.550;2023-02-20T02:54:55;97279;;;10.98;50.89
2711;BME280;20721;47.402;8.550;2023-02-20T02:57:55;97276;;;10.96;50.78
2711;BME280;20721;47.402;8.550;2023-02-20T02:58:55;97276;;;10.95;50.80
2711;BME280;20721;47.402;8.550;2023-02-20T03:00:57;97277;;;10.94;51.04
2711;BME280;20721;47.402;8.550;2023-02-20T03:01:57;97271;;;10.93;51.05
2711;BME280;20721;47.402;8.550;2023-02-20T03:04:55;97273;;;10.91;51.12
2711;BME280;20721;47.402;8.550;2023-02-20T03:06:57;97271;;;10.89;51.12
2711;BME280;20721;47.402;8.550;2023-02-20T03:07:55;97277;;;10.86;51.27
2711;BME280;20721;47.402;8.550;2023-02-20T03:09:00;97280;;;10.84;51.20
2711;BME280;20721;47.402;8.550;2023-02-20T03:09:58;97281;;;10.82;51.25
2711;BME280;20721;47.402;8.550;2023-02-20T03:10:57;97283;;;10.83;51.33
2711;BME280;20721;47.402;8.550;2023-02-20T03:15:08;97281;;;10.85;51.51
2711;BME280;20721;47.402;8.550;2023-02-20T03:15:55;97280;;;10.86;51.41
2711;BME280;20721;47.402;8.550;2023-02-20T03:16:57;97278;;;10.84;51.40
2711;BME280;20721;47.402;8.550;2023-02-20T03:18:56;97274;;;10.68;51.51
2711;BME280;20721;47.402;8.550;2023-02-20T03:19:58;97271;;;10.59;51.67
2711;BME280;20721;47.402;8.550;2023-02-20T03:20:56;97273;;;10.53;51.83
2711;BME280;20721;47.402;8.550;2023-02-20T03:21:55;97268;;;10.47;52.01
2711;BME280;20721;47.402;8.550;2023-02-20T03:22:57;97268;;;10.44;52.14
2711;BME280;20721;47.402;8.550;2023-02-20T03:23:56;97266;;;10.42;52.29
2711;BME280;20721;47.402;8.550;2023-02-20T03:24:57;97264;;;10.33;52.39
2711;BME280;20721;47.402;8.550;2023-02-20T03:25:57;97265;;;10.29;52.51
2711;BME280;20721;47.402;8.550;2023-02-20T03:26:55;97267;;;10.25;52.58
2711;BME280;20721;47.402;8.550;2023-02-20T03:28:57;97267;;;10.20;52.68
2711;BME280;20721;47.402;8.550;2023-02-20T03:29:56;97267;;;10.19;52.76
2711;BME280;20721;47.402;8.550;2023-02-20T03:31:00;97267;;;10.20;52.77
2711;BME280;20721;47.402;8.550;2023-02-20T03:32:06;97263;;;10.22;52.77
2711;BME280;20721;47.402;8.550;2023-02-20T03:35:05;97259;;;10.22;52.82
2711;BME280;20721;47.402;8.550;2023-02-20T03:36:06;97259;;;10.12;53.02
2711;BME280;20721;47.402;8.550;2023-02-20T03:37:06;97261;;;10.05;53.01
2711;BME280;20721;47.402;8.550;2023-02-20T03:38:05;97259;;;10.02;53.08
2711;BME280;20721;47.402;8.550;2023-02-20T03:39:07;97259;;;9.99;53.20
2711;BME280;20721;47.402;8.550;2023-02-20T03:40:06;97257;;;9.98;53.11
2711;BME280;20721;47.402;8.550;2023-02-20T03:41:05;97254;;;9.96;52.95
2711;BME280;20721;47.402;8.550;2023-02-20T03:42:06;97256;;;9.97;52.95
2711;BME280;20721;47.402;8.550;2023-02-20T03:43:06;97255;;;9.94;52.79
2711;BME280;20721;47.402;8.550;2023-02-20T03:43:55;97250;;;9.92;52.82
2711;BME280;20721;47.402;8.550;2023-02-20T03:44:55;97249;;;9.91;52.85
2711;BME280;20721;47.402;8.550;2023-02-20T03:45:57;97247;;;9.87;52.94
2711;BME280;20721;47.402;8.550;2023-02-20T03:46:55;97246;;;9.84;53.05
2711;BME280;20721;47.402;8.550;2023-02-20T03:47:56;97249;;;9.82;52.91
2711;BME280;20721;47.402;8.550;2023-02-20T03:48:57;97245;;;9.75;53.06
2711;BME280;20721;47.402;8.550;2023-02-20T03:49:55;97250;;;9.74;53.19
2711;BME280;20721;47.402;8.550;2023-02-20T03:51:05;97247;;;9.67;53.46
2711;BME280;20721;47.402;8.550;2023-02-20T03:53:55;97242;;;9.68;53.57
2711;BME280;20721;47.402;8.550;2023-02-20T03:54:55;97243;;;9.70;53.54
2711;BME280;20721;47.402;8.550;2023-02-20T03:56:57;97247;;;9.68;53.57
2711;BME280;20721;47.402;8.550;2023-02-20T03:57:56;97247;;;9.66;53.55
2711;BME280;20721;47.402;8.550;2023-02-20T03:58:57;97243;;;9.62;53.78
2711;BME280;20721;47.402;8.550;2023-02-20T04:00:56;97250;;;9.63;53.82
2711;BME280;20721;47.402;8.550;2023-02-20T04:01:56;97249;;;9.59;53.89
2711;BME280;20721;47.402;8.550;2023-02-20T04:02:56;97249;;;9.55;53.95
2711;BME280;20721;47.402;8.550;2023-02-20T04:03:56;97243;;;9.52;53.90
2711;BME280;20721;47.402;8.550;2023-02-20T04:04:56;97243;;;9.44;53.62
2711;BME280;20721;47.402;8.550;2023-02-20T04:05:56;97241;;;9.28;53.95
2711;BME280;20721;47.402;8.550;2023-02-20T04:06:55;97242;;;9.13;54.43
2711;BME280;20721;47.402;8.550;2023-02-20T04:07:57;97236;;;9.09;54.60
2711;BME280;20721;47.402;8.550;2023-02-20T04:08:58;97238;;;9.06;54.77
2711;BME280;20721;47.402;8.550;2023-02-20T04:09:56;97237;;;9.07;54.84
2711;BME280;20721;47.402;8.550;2023-02-20T04:10:58;97239;;;9.09;54.95
2711;BME280;20721;47.402;8.550;2023-02-20T04:12:00;97242;;;9.13;54.95
2711;BME280;20721;47.402;8.550;2023-02-20T04:12:56;97244;;;9.18;54.87
2711;BME280;20721;47.402;8.550;2023-02-20T04:13:55;97242;;;9.20;54.79
2711;BME280;20721;47.402;8.550;2023-02-20T04:14:56;97241;;;9.22;54.88
2711;BME280;20721;47.402;8.550;2023-02-20T04:15:57;97240;;;9.26;54.69
2711;BME280;20721;47.402;8.550;2023-02-20T04:16:57;97241;;;9.28;54.71
2711;BME280;20721;47.402;8.550;2023-02-20T04:17:57;97237;;;9.25;54.72
2711;BME280;20721;47.402;8.550;2023-02-20T04:19:55;97238;;;9.24;54.76
2711;BME280;20721;47.402;8.550;2023-02-20T04:20:55;97237;;;9.20;54.87
2711;BME280;20721;47.402;8.550;2023-02-20T04:21:57;97231;;;9.13;54.96
2711;BME280;20721;47.402;8.550;2023-02-20T04:22:56;97234;;;9.12;55.05
2711;BME280;20721;47.402;8.550;2023-02-20T04:24:01;97235;;;9.10;55.13
2711;BME280;20721;47.402;8.550;2023-02-20T04:24:57;97235;;;9.06;55.31
2711;BME280;20721;47.402;8.550;2023-02-20T04:25:56;97235;;;9.05;55.33
2711;BME280;20721;47.402;8.550;2023-02-20T04:26:55;97238;;;9.06;55.39
2711;BME280;20721;47.402;8.550;2023-02-20T04:27:55;97235;;;9.05;55.34
2711;BME280;20721;47.402;8.550;2023-02-20T04:28:55;97233;;;9.03;55.49
2711;BME280;20721;47.402;8.550;2023-02-20T04:29:55;97231;;;9.01;55.57
2711;BME280;20721;47.402;8.550;2023-02-20T04:30:56;97231;;;9.02;55.61
2711;BME280;20721;47.402;8.550;2023-02-20T04:31:55;97235;;;8.99;55.88
2711;BME280;20721;47.402;8.550;2023-02-20T04:32:55;97235;;;9.02;55.70
2711;BME280;20721;47.402;8.550;2023-02-20T04:33:55;97232;;;9.00;55.90
2711;BME280;20721;47.402;8.550;2023-02-20T04:34:56;97231;;;9.06;55.66
2711;BME280;20721;47.402;8.550;2023-02-20T04:35:57;97229;;;9.08;55.66
2711;BME280;20721;47.402;8.550;2023-02-20T04:37:03;97226;;;9.11;55.67
2711;BME280;20721;47.402;8.550;2023-02-20T04:37:55;97226;;;9.10;55.68
2711;BME280;20721;47.402;8.550;2023-02-20T04:38:55;97229;;;9.08;55.79
2711;BME280;20721;47.402;8.550;2023-02-20T04:39:55;97230;;;9.12;55.69
2711;BME280;20721;47.402;8.550;2023-02-20T04:40:55;97235;;;9.16;55.65
2711;BME280;20721;47.402;8.550;2023-02-20T04:41:55;97229;;;9.17;55.60
2711;BME280;20721;47.402;8.550;2023-02-20T04:42:55;97229;;;9.21;55.58
2711;BME280;20721;47.402;8.550;2023-02-20T04:44:05;97230;;;9.25;55.48
2711;BME280;20721;47.402;8.550;2023-02-20T04:44:55;97230;;;9.28;55.44
2711;BME280;20721;47.402;8.550;2023-02-20T04:45:56;97232;;;9.31;55.30
2711;BME280;20721;47.402;8.550;2023-02-20T04:46:56;97229;;;9.35;55.19
2711;BME280;20721;47.402;8.550;2023-02-20T04:47:55;97229;;;9.36;55.16
2711;BME280;20721;47.402;8.550;2023-02-20T04:48:55;97226;;;9.37;55.14
2711;BME280;20721;47.402;8.550;2023-02-20T04:49:55;97227;;;9.38;55.08
2711;BME280;20721;47.402;8.550;2023-02-20T04:50:55;97227;;;9.39;55.10
2711;BME280;20721;47.402;8.550;2023-02-20T04:51:55;97229;;;9.37;55.05
2711;BME280;20721;47.402;8.550;2023-02-20T04:52:56;97231;;;9.36;55.08
2711;BME280;20721;47.402;8.550;2023-02-20T04:53:56;97227;;;9.35;55.25
2711;BME280;20721;47.402;8.550;2023-02-20T04:54:55;97231;;;9.34;55.14
2711;BME280;20721;47.402;8.550;2023-02-20T04:57:57;97226;;;9.33;54.54
2711;BME280;20721;47.402;8.550;2023-02-20T04:58:55;97230;;;9.31;54.43
2711;BME280;20721;47.402;8.550;2023-02-20T04:59:55;97228;;;9.26;54.54
2711;BME280;20721;47.402;8.550;2023-02-20T05:00:55;97227;;;9.24;54.57
2711;BME280;20721;47.402;8.550;2023-02-20T05:01:55;97228;;;9.22;54.63
2711;BME280;20721;47.402;8.550;2023-02-20T05:02:56;97229;;;9.20;54.65
2711;BME280;20721;47.402;8.550;2023-02-20T05:03:55;97229;;;9.17;54.77
2711;BME280;20721;47.402;8.550;2023-02-20T05:04:55;97227;;;9.14;54.93
2711;BME280;20721;47.402;8.550;2023-02-20T05:05:55;97231;;;9.12;55.19
2711;BME280;20721;47.402;8.550;2023-02-20T05:06:55;97229;;;9.11;55.41
2711;BME280;20721;47.402;8.550;2023-02-20T05:08:56;97228;;;9.10;55.34
2711;BME280;20721;47.402;8.550;2023-02-20T05:09:55;97229;;;9.07;55.57
2711;BME280;20721;47.402;8.550;2023-02-20T05:10:55;97228;;;9.06;55.63
2711;BME280;20721;47.402;8.550;2023-02-20T05:11:55;97229;;;9.07;55.40
2711;BME280;20721;47.402;8.550;2023-02-20T05:12:56;97224;;;9.05;55.52
2711;BME280;20721;47.402;8.550;2023-02-20T05:13:55;97222;;;8.99;55.60
2711;BME280;20721;47.402;8.550;2023-02-20T05:14:56;97225;;;8.95;55.61
2711;BME280;20721;47.402;8.550;2023-02-20T05:15:55;97226;;;8.93;55.66
2711;BME280;20721;47.402;8.550;2023-02-20T05:17:56;97223;;;8.94;56.00
2711;BME280;20721;47.402;8.550;2023-02-20T05:18:56;97222;;;8.95;56.11
2711;BME280;20721;47.402;8.550;2023-02-20T05:21:05;97227;;;8.94;56.35
2711;BME280;20721;47.402;8.550;2023-02-20T05:22:08;97226;;;8.91;56.48
2711;BME280;20721;47.402;8.550;2023-02-20T05:22:55;97226;;;8.89;56.60
2711;BME280;20721;47.402;8.550;2023-02-20T05:23:55;97226;;;8.88;56.87
2711;BME280;20721;47.402;8.550;2023-02-20T05:24:56;97232;;;8.89;56.64
2711;BME280;20721;47.402;8.550;2023-02-20T05:25:56;97232;;;8.86;56.68
2711;BME280;20721;47.402;8.550;2023-02-20T05:27:55;97232;;;8.87;56.39
2711;BME280;20721;47.402;8.550;2023-02-20T05:28:55;97228;;;8.86;56.38
2711;BME280;20721;47.402;8.550;2023-02-20T05:29:57;97224;;;8.88;56.32
2711;BME280;20721;47.402;8.550;2023-02-20T05:30:56;97225;;;8.87;56.44
2711;BME280;20721;47.402;8.550;2023-02-20T05:33:56;97222;;;8.88;55.83
2711;BME280;20721;47.402;8.550;2023-02-20T05:34:56;97221;;;8.86;55.88
2711;BME280;20721;47.402;8.550;2023-02-20T05:35:56;97223;;;8.85;55.79
2711;BME280;20721;47.402;8.550;2023-02-20T05:36:56;97224;;;8.82;55.68
2711;BME280;20721;47.402;8.550;2023-02-20T05:38:55;97223;;;8.83;55.64
2711;BME280;20721;47.402;8.550;2023-02-20T05:39:56;97219;;;8.80;55.60
2711;BME280;20721;47.402;8.550;2023-02-20T05:40:56;97223;;;8.79;55.59
2711;BME280;20721;47.402;8.550;2023-02-20T05:41:56;97223;;;8.78;55.60
2711;BME280;20721;47.402;8.550;2023-02-20T05:42:56;97216;;;8.76;55.61
2711;BME280;20721;47.402;8.550;2023-02-20T05:43:56;97215;;;8.73;55.70
2711;BME280;20721;47.402;8.550;2023-02-20T05:44:56;97216;;;8.72;55.65
2711;BME280;20721;47.402;8.550;2023-02-20T05:45:56;97221;;;8.68;55.79
2711;BME280;20721;47.402;8.550;2023-02-20T05:46:55;97220;;;8.70;55.77
2711;BME280;20721;47.402;8.550;2023-02-20T05:47:55;97216;;;8.68;55.82
2711;BME280;20721;47.402;8.550;2023-02-20T05:48:56;97221;;;8.67;55.83
2711;BME280;20721;47.402;8.550;2023-02-20T05:50:56;97219;;;8.65;55.84
2711;BME280;20721;47.402;8.550;2023-02-20T05:52:56;97220;;;8.64;55.88
2711;BME280;20721;47.402;8.550;2023-02-20T05:53:56;97219;;;8.62;55.92
2711;BME280;20721;47.402;8.550;2023-02-20T05:54:56;97223;;;8.58;56.01
2711;BME280;20721;47.402;8.550;2023-02-20T05:55:56;97223;;;8.55;56.14
2711;BME280;20721;47.402;8.550;2023-02-20T05:56:56;97224;;;8.53;56.16
2711;BME280;20721;47.402;8.550;2023-02-20T05:57:56;97224;;;8.50;56.19
2711;BME280;20721;47.402;8.550;2023-02-20T05:58:56;97225;;;8.47;56.22
2711;BME280;20721;47.402;8.550;2023-02-20T05:59:56;97226;;;8.43;56.37
2711;BME280;20721;47.402;8.550;2023-02-20T06:00:56;97223;;;8.42;56.38
2711;BME280;20721;47.402;8.550;2023-02-20T06:01:56;97221;;;8.40;56.40
2711;BME280;20721;47.402;8.550;2023-02-20T06:02:56;97220;;;8.37;56.44
2711;BME280;20721;47.402;8.550;2023-02-20T06:03:56;97224;;;8.35;56.53
2711;BME280;20721;47.402;8.550;2023-02-20T06:04:56;97221;;;8.33;56.57
2711;BME280;20721;47.402;8.550;2023-02-20T06:05:56;97219;;;8.34;56.62
2711;BME280;20721;47.402;8.550;2023-02-20T06:07:56;97214;;;8.31;56.44
2711;BME280;20721;47.402;8.550;2023-02-20T06:08:56;97216;;;8.27;56.54
2711;BME280;20721;47.402;8.550;2023-02-20T06:09:58;97214;;;8.24;56.63
2711;BME280;20721;47.402;8.550;2023-02-20T06:10:56;97215;;;8.22;56.66
2711;BME280;20721;47.402;8.550;2023-02-20T06:11:56;97217;;;8.21;56.68
2711;BME280;20721;47.402;8.550;2023-02-20T06:12:56;97220;;;8.22;56.68
2711;BME280;20721;47.402;8.550;2023-02-20T06:13:56;97221;;;8.23;56.72
2711;BME280;20721;47.402;8.550;2023-02-20T06:16:56;97217;;;8.24;56.97
2711;BME280;20721;47.402;8.550;2023-02-20T06:17:56;97218;;;8.27;56.96
2711;BME280;20721;47.402;8.550;2023-02-20T06:19:56;97217;;;8.28;57.03
2711;BME280;20721;47.402;8.550;2023-02-20T06:20:56;97217;;;8.29;56.90
2711;BME280;20721;47.402;8.550;2023-02-20T06:21:57;97218;;;8.34;56.75
2711;BME280;20721;47.402;8.550;2023-02-20T06:22:56;97217;;;8.35;56.68
2711;BME280;20721;47.402;8.550;2023-02-20T06:23:56;97216;;;8.34;56.67
2711;BME280;20721;47.402;8.550;2023-02-20T06:24:56;97218;;;8.35;56.66
2711;BME280;20721;47.402;8.550;2023-02-20T06:25:56;97216;;;8.37;56.62
2711;BME280;20721;47.402;8.550;2023-02-20T06:26:56;97214;;;8.38;56.63
2711;BME280;20721;47.402;8.550;2023-02-20T06:27:56;97216;;;8.39;56.60
2711;BME280;20721;47.402;8.550;2023-02-20T06:28:57;97217;;;8.40;56.55
2711;BME280;20721;47.402;8.550;2023-02-20T06:29:56;97217;;;8.42;56.42
2711;BME280;20721;47.402;8.550;2023-02-20T06:30:56;97217;;;8.43;56.55
2711;BME280;20721;47.402;8.550;2023-02-20T06:31:57;97215;;;8.40;56.58
2711;BME280;20721;47.402;8.550;2023-02-20T06:32:56;97211;;;8.42;56.51
2711;BME280;20721;47.402;8.550;2023-02-20T06:33:56;97211;;;8.44;56.64
2711;BME280;20721;47.402;8.550;2023-02-20T06:34:56;97211;;;8.47;56.47
2711;BME280;20721;47.402;8.550;2023-02-20T06:35:56;97218;;;8.51;56.33
2711;BME280;20721;47.402;8.550;2023-02-20T06:36:56;97217;;;8.56;56.15
2711;BME280;20721;47.402;8.550;2023-02-20T06:37:56;97220;;;8.62;56.14
2711;BME280;20721;47.402;8.550;2023-02-20T06:38:58;97218;;;8.68;55.96
2711;BME280;20721;47.402;8.550;2023-02-20T06:40:56;97219;;;8.61;55.54
2711;BME280;20721;47.402;8.550;2023-02-20T06:41:56;97216;;;8.56;55.58
2711;BME280;20721;47.402;8.550;2023-02-20T06:42:56;97216;;;8.52;55.81
2711;BME280;20721;47.402;8.550;2023-02-20T06:43:56;97219;;;8.54;55.94
2711;BME280;20721;47.402;8.550;2023-02-20T06:44:56;97218;;;8.60;55.88
2711;BME280;20721;47.402;8.550;2023-02-20T06:55:08;97207;;;8.93;55.27
2711;BME280;20721;47.402;8.550;2023-02-20T06:56:29;97208;;;8.99;55.08
2711;BME280;20721;47.402;8.550;2023-02-20T06:57:00;97205;;;9.01;55.10
2711;BME280;20721;47.402;8.550;2023-02-20T06:58:58;97207;;;9.11;54.78
2711;BME280;20721;47.402;8.550;2023-02-20T06:59:56;97209;;;9.13;54.53
2711;BME280;20721;47.402;8.550;2023-02-20T07:00:58;97207;;;9.15;54.49
2711;BME280;20721;47.402;8.550;2023-02-20T07:01:56;97208;;;9.18;54.32
2711;BME280;20721;47.402;8.550;2023-02-20T07:02:56;97207;;;9.20;54.34
2711;BME280;20721;47.402;8.550;2023-02-20T07:03:56;97209;;;9.22;54.32
2711;BME280;20721;47.402;8.550;2023-02-20T07:04:56;97208;;;9.25;54.29
2711;BME280;20721;47.402;8.550;2023-02-20T07:05:56;97207;;;9.29;54.29
2711;BME280;20721;47.402;8.550;2023-02-20T07:06:56;97208;;;9.31;54.18
2711;BME280;20721;47.402;8.550;2023-02-20T07:07:56;97209;;;9.33;54.13
2711;BME280;20721;47.402;8.550;2023-02-20T07:08:56;97208;;;9.35;54.12
2711;BME280;20721;47.402;8.550;2023-02-20T07:09:56;97208;;;9.40;54.09
2711;BME280;20721;47.402;8.550;2023-02-20T07:10:56;97213;;;9.45;54.08
2711;BME280;20721;47.402;8.550;2023-02-20T07:11:56;97214;;;9.48;53.88